createdAt,value
2022-11-04T00:00:11.350Z,10.81
2022-11-04T00:03:18.243Z,10.83
2022-11-04T00:06:25.132Z,10.83
2022-11-04T00:09:32.275Z,10.83
2022-11-04T00:12:39.166Z,10.88
2022-11-04T00:15:46.095Z,10.91
2022-11-04T00:18:53.494Z,10.94
2022-11-04T00:22:00.387Z,10.95
2022-11-04T00:25:07.198Z,10.98
2022-11-04T00:28:14.430Z,10.99
2022-11-04T00:31:20.985Z,10.99
2022-11-04T00:34:28.091Z,10.99
2022-11-04T00:37:35.000Z,10.99
2022-11-04T00:40:41.520Z,10.99
2022-11-04T00:43:48.864Z,10.99
2022-11-04T00:46:55.366Z,10.99
2022-11-04T00:50:02.583Z,10.98
2022-11-04T00:53:10.283Z,10.95
2022-11-04T00:56:17.023Z,10.95
2022-11-04T00:59:24.413Z,10.92
2022-11-04T01:02:31.554Z,10.91
2022-11-04T01:05:38.116Z,10.92
2022-11-04T01:08:45.515Z,10.92
2022-11-04T01:11:52.761Z,10.88
2022-11-04T01:14:59.395Z,10.88
2022-11-04T01:18:06.847Z,10.88
2022-11-04T01:21:13.879Z,10.86
2022-11-04T01:24:20.639Z,10.89
2022-11-04T01:27:27.401Z,10.92
2022-11-04T01:30:34.243Z,10.95
2022-11-04T01:33:41.212Z,10.94
2022-11-04T01:36:48.124Z,10.95
2022-11-04T01:39:54.912Z,10.96
2022-11-04T01:43:02.164Z,10.96
2022-11-04T01:46:06.548Z,10.98
2022-11-04T01:49:13.974Z,10.96
2022-11-04T01:52:20.857Z,10.96
2022-11-04T01:55:27.611Z,11.01
2022-11-04T01:58:34.977Z,10.99
2022-11-04T02:01:42.109Z,10.96
2022-11-04T02:04:48.829Z,10.92
2022-11-04T02:07:56.219Z,10.88
2022-11-04T02:11:02.820Z,10.84
2022-11-04T02:14:10.124Z,10.78
2022-11-04T02:17:17.269Z,10.74
2022-11-04T02:20:23.804Z,10.74
2022-11-04T02:23:31.083Z,10.73
2022-11-04T02:26:38.212Z,10.71
2022-11-04T02:29:44.825Z,10.70
2022-11-04T02:32:51.956Z,10.70
2022-11-04T02:35:58.880Z,10.70
2022-11-04T02:39:05.786Z,10.70
2022-11-04T02:42:13.097Z,10.70
2022-11-04T02:45:20.118Z,10.68
2022-11-04T02:48:27.268Z,10.70
2022-11-04T02:51:34.257Z,10.68
2022-11-04T02:54:41.789Z,10.63
2022-11-04T02:57:48.771Z,10.53
2022-11-04T03:00:55.857Z,10.44
2022-11-04T03:04:03.265Z,10.43
2022-11-04T03:10:17.192Z,10.36
2022-11-04T03:13:24.629Z,10.33
2022-11-04T03:16:31.269Z,10.28
2022-11-04T03:19:38.555Z,10.26
2022-11-04T03:22:45.777Z,10.24
2022-11-04T03:25:52.385Z,10.24
2022-11-04T03:28:59.855Z,10.25
2022-11-04T03:32:07.301Z,10.25
2022-11-04T03:35:13.898Z,10.25
2022-11-04T03:38:21.216Z,10.28
2022-11-04T03:41:28.560Z,10.33
2022-11-04T03:44:35.170Z,10.37
2022-11-04T03:47:42.538Z,10.44
2022-11-04T03:50:49.522Z,10.47
2022-11-04T03:53:56.503Z,10.59
2022-11-04T03:57:03.690Z,10.62
2022-11-04T04:00:10.707Z,10.70
2022-11-04T04:03:17.695Z,10.77
2022-11-04T04:06:24.627Z,10.80
2022-11-04T04:09:32.059Z,10.78
2022-11-04T04:12:39.062Z,10.78
2022-11-04T04:15:45.967Z,10.78
2022-11-04T04:18:55.814Z,10.81
2022-11-04T04:21:54.688Z,10.83
2022-11-04T04:25:01.510Z,10.84
2022-11-04T04:28:09.126Z,10.86
2022-11-04T04:31:15.790Z,10.84
2022-11-04T04:34:22.971Z,10.83
2022-11-04T04:37:30.266Z,10.80
2022-11-04T04:40:36.782Z,10.81
2022-11-04T04:43:44.071Z,10.84
2022-11-04T04:46:51.065Z,10.83
2022-11-04T04:49:57.862Z,10.81
2022-11-04T04:53:04.896Z,10.76
2022-11-04T04:56:11.465Z,10.71
2022-11-04T04:59:18.347Z,10.66
2022-11-04T05:02:25.476Z,10.62
2022-11-04T05:05:32.477Z,10.63
2022-11-04T05:08:39.469Z,10.62
2022-11-04T05:11:46.443Z,10.62
2022-11-04T05:14:53.720Z,10.58
2022-11-04T05:18:00.768Z,10.55
2022-11-04T05:21:07.863Z,10.52
2022-11-04T05:24:15.202Z,10.51
2022-11-04T05:27:22.233Z,10.47
2022-11-04T05:30:29.267Z,10.43
2022-11-04T05:33:36.492Z,10.39
2022-11-04T05:36:43.556Z,10.34
2022-11-04T05:39:51.574Z,10.25
2022-11-04T05:42:59.666Z,10.18
2022-11-04T05:46:06.316Z,10.14
2022-11-04T05:49:13.440Z,10.15
2022-11-04T05:52:21.005Z,10.17
2022-11-04T05:55:27.773Z,10.14
2022-11-04T05:58:34.979Z,10.09
2022-11-04T06:01:42.061Z,10.03
2022-11-04T06:04:48.888Z,9.97
2022-11-04T06:07:56.081Z,9.88
2022-11-04T06:11:03.292Z,9.79
2022-11-04T06:14:14.661Z,9.71
2022-11-04T06:17:13.646Z,9.68
2022-11-04T06:20:20.900Z,9.66
2022-11-04T06:23:28.211Z,9.63
2022-11-04T06:26:35.367Z,9.61
2022-11-04T06:29:42.898Z,9.56
2022-11-04T06:32:50.110Z,9.56
2022-11-04T06:35:57.207Z,9.56
2022-11-04T06:39:05.205Z,9.53
2022-11-04T06:42:12.317Z,9.57
2022-11-04T06:45:19.578Z,9.58
2022-11-04T06:48:27.192Z,9.57
2022-11-04T06:51:34.102Z,9.61
2022-11-04T06:54:41.294Z,9.60
2022-11-04T06:57:48.971Z,9.57
2022-11-04T07:00:55.976Z,9.58
2022-11-04T07:04:03.525Z,9.64
2022-11-04T07:07:11.010Z,9.67
2022-11-04T07:10:17.793Z,9.75
2022-11-04T07:13:25.297Z,9.79
2022-11-04T07:16:32.606Z,9.86
2022-11-04T07:19:39.876Z,9.88
2022-11-04T07:22:47.466Z,9.91
2022-11-04T07:25:54.647Z,9.94
2022-11-04T07:29:01.908Z,9.97
2022-11-04T07:32:09.424Z,9.99
2022-11-04T07:35:16.636Z,10.01
2022-11-04T07:38:23.970Z,10.10
2022-11-04T07:41:31.421Z,10.17
2022-11-04T07:44:38.432Z,10.19
2022-11-04T07:47:45.558Z,10.22
2022-11-04T07:50:52.870Z,10.32
2022-11-04T07:54:00.343Z,10.39
2022-11-04T07:57:07.453Z,10.46
2022-11-04T08:00:14.674Z,10.46
2022-11-04T08:03:22.346Z,10.51
2022-11-04T08:06:29.486Z,10.52
2022-11-04T08:09:36.485Z,10.53
2022-11-04T08:12:44.060Z,10.56
2022-11-04T08:15:50.796Z,10.59
2022-11-04T08:18:58.201Z,10.65
2022-11-04T08:22:05.913Z,10.68
2022-11-04T08:25:13.439Z,10.71
2022-11-04T08:28:21.020Z,10.74
2022-11-04T08:31:28.521Z,10.77
2022-11-04T08:34:35.421Z,10.80
2022-11-04T08:37:42.812Z,10.84
2022-11-04T08:40:50.575Z,10.91
2022-11-04T08:43:58.723Z,10.95
2022-11-04T08:47:06.077Z,11.06
2022-11-04T08:50:13.125Z,11.11
2022-11-04T08:53:20.368Z,11.27
2022-11-04T08:56:27.957Z,11.43
2022-11-04T08:59:35.164Z,11.53
2022-11-04T09:02:42.557Z,11.56
2022-11-04T09:05:49.675Z,11.53
2022-11-04T09:08:57.445Z,11.49
2022-11-04T09:12:04.701Z,11.47
2022-11-04T09:15:12.675Z,11.49
2022-11-04T09:18:19.762Z,11.53
2022-11-04T09:21:26.993Z,11.59
2022-11-04T09:24:34.234Z,11.65
2022-11-04T09:27:41.424Z,11.77
2022-11-04T09:30:48.484Z,11.82
2022-11-04T09:33:56.228Z,11.86
2022-11-04T09:37:03.537Z,11.83
2022-11-04T09:40:10.476Z,11.75
2022-11-04T09:43:18.111Z,11.65
2022-11-04T09:46:25.355Z,11.67
2022-11-04T09:49:33.227Z,11.62
2022-11-04T09:52:40.361Z,11.68
2022-11-04T09:55:48.132Z,11.77
2022-11-04T09:58:55.519Z,11.83
2022-11-04T10:02:02.862Z,11.89
2022-11-04T10:05:10.335Z,11.97
2022-11-04T10:08:17.594Z,12.05
2022-11-04T10:11:25.183Z,12.11
2022-11-04T10:14:35.504Z,12.26
2022-11-04T10:17:32.057Z,12.27
2022-11-04T10:20:43.630Z,12.29
2022-11-04T10:23:40.607Z,12.27
2022-11-04T10:26:48.329Z,12.31
2022-11-04T10:29:55.163Z,12.30
2022-11-04T10:33:02.914Z,12.21
2022-11-04T10:36:10.199Z,12.27
2022-11-04T10:39:17.482Z,12.29
2022-11-04T10:42:25.092Z,12.24
2022-11-04T10:45:32.365Z,12.24
2022-11-04T10:48:39.494Z,12.19
2022-11-04T10:51:46.336Z,12.21
2022-11-04T10:54:53.995Z,12.21
2022-11-04T10:58:01.086Z,12.23
2022-11-04T11:01:12.577Z,12.13
2022-11-04T11:04:10.798Z,12.16
2022-11-04T11:07:17.708Z,12.26
2022-11-04T11:10:25.170Z,12.26
2022-11-04T11:13:32.651Z,12.30
2022-11-04T11:16:39.461Z,12.29
2022-11-04T11:19:47.102Z,12.30
2022-11-04T11:22:54.553Z,12.30
2022-11-04T11:26:01.403Z,12.21
2022-11-04T11:29:08.548Z,12.21
2022-11-04T11:32:15.646Z,12.30
2022-11-04T11:35:22.776Z,12.31
2022-11-04T11:38:29.795Z,12.37
2022-11-04T11:41:42.567Z,12.37
2022-11-04T11:44:39.898Z,12.33
2022-11-04T11:47:47.130Z,12.31
2022-11-04T11:50:54.380Z,12.37
2022-11-04T11:54:01.101Z,12.34
2022-11-04T11:57:13.920Z,12.38
2022-11-04T12:03:16.352Z,12.34
2022-11-04T12:06:24.808Z,12.34
2022-11-04T12:09:34.464Z,12.41
2022-11-04T12:12:41.853Z,12.48
2022-11-04T12:15:49.307Z,12.52
2022-11-04T12:18:56.534Z,12.56
2022-11-04T12:22:03.157Z,12.54
2022-11-04T12:25:10.803Z,12.46
2022-11-04T12:28:17.809Z,12.44
2022-11-04T12:31:24.819Z,12.44
2022-11-04T12:34:31.996Z,12.44
2022-11-04T12:37:38.922Z,12.51
2022-11-04T12:41:04.981Z,12.63
2022-11-04T12:43:50.253Z,12.66
2022-11-04T12:46:57.515Z,12.82
2022-11-04T12:50:04.546Z,12.96
2022-11-04T12:53:11.842Z,13.03
2022-11-04T12:56:19.536Z,13.03
2022-11-04T12:59:26.176Z,13.03
2022-11-04T13:02:33.450Z,13.12
2022-11-04T13:05:40.838Z,13.12
2022-11-04T13:08:47.490Z,13.14
2022-11-04T13:11:54.920Z,13.09
2022-11-04T13:15:01.482Z,13.02
2022-11-04T13:18:08.831Z,12.82
2022-11-04T13:21:16.271Z,12.69
2022-11-04T13:24:23.282Z,12.62
2022-11-04T13:27:30.232Z,12.60
2022-11-04T13:30:37.292Z,12.60
2022-11-04T13:33:44.234Z,12.52
2022-11-04T13:36:51.695Z,12.49
2022-11-04T13:39:58.668Z,12.52
2022-11-04T13:43:05.825Z,12.57
2022-11-04T13:46:12.779Z,12.62
2022-11-04T13:49:19.719Z,12.63
2022-11-04T13:52:26.927Z,12.66
2022-11-04T13:55:33.670Z,12.70
2022-11-04T13:58:46.064Z,12.70
2022-11-04T14:01:43.919Z,12.74
2022-11-04T14:04:50.693Z,12.78
2022-11-04T14:07:58.134Z,12.69
2022-11-04T14:11:04.884Z,12.63
2022-11-04T14:14:12.782Z,12.62
2022-11-04T14:17:20.377Z,12.63
2022-11-04T14:20:27.145Z,12.62
2022-11-04T14:23:34.719Z,12.54
2022-11-04T14:26:41.849Z,12.48
2022-11-04T14:29:49.040Z,12.38
2022-11-04T14:32:56.230Z,12.29
2022-11-04T14:36:02.865Z,12.24
2022-11-04T14:39:09.891Z,12.23
2022-11-04T14:42:17.804Z,12.19
2022-11-04T14:45:25.542Z,12.15
2022-11-04T14:48:32.496Z,12.13
2022-11-04T14:51:40.009Z,12.09
2022-11-04T14:54:49.069Z,12.06
2022-11-04T14:57:56.598Z,12.04
2022-11-04T15:01:03.723Z,12.04
2022-11-04T15:04:13.009Z,12.01
2022-11-04T15:07:20.619Z,11.99
2022-11-04T15:10:27.699Z,11.99
2022-11-04T15:13:34.610Z,12.01
2022-11-04T15:16:42.062Z,11.99
2022-11-04T15:19:48.764Z,11.97
2022-11-04T15:22:56.033Z,11.90
2022-11-04T15:26:03.488Z,11.83
2022-11-04T15:29:10.411Z,11.75
2022-11-04T15:32:17.376Z,11.67
2022-11-04T15:35:25.255Z,11.53
2022-11-04T15:38:32.378Z,11.44
2022-11-04T15:41:39.847Z,11.34
2022-11-04T15:44:47.053Z,11.25
2022-11-04T15:47:53.569Z,11.14
2022-11-04T15:51:00.505Z,11.02
2022-11-04T15:54:07.709Z,10.92
2022-11-04T15:57:14.310Z,10.81
2022-11-04T16:00:21.701Z,10.68
2022-11-04T16:03:28.541Z,10.58
2022-11-04T16:06:35.392Z,10.53
2022-11-04T16:09:42.703Z,10.52
2022-11-04T16:12:49.754Z,10.55
2022-11-04T16:15:56.645Z,10.59
2022-11-04T16:19:03.535Z,10.62
2022-11-04T16:22:10.772Z,10.62
2022-11-04T16:25:17.848Z,10.63
2022-11-04T16:28:24.697Z,10.59
2022-11-04T16:31:32.038Z,10.55
2022-11-04T16:34:39.168Z,10.44
2022-11-04T16:37:45.789Z,10.36
2022-11-04T16:40:53.093Z,10.26
2022-11-04T16:43:59.672Z,10.15
2022-11-04T16:47:06.649Z,10.12
2022-11-04T16:50:14.171Z,10.01
2022-11-04T16:53:21.052Z,10.00
2022-11-04T16:56:29.163Z,9.97
2022-11-04T16:59:36.223Z,9.97
2022-11-04T17:02:43.267Z,10.01
2022-11-04T17:05:50.546Z,10.09
2022-11-04T17:08:57.597Z,10.14
2022-11-04T17:12:05.014Z,10.18
2022-11-04T17:15:11.965Z,10.22
2022-11-04T17:18:18.889Z,10.24
2022-11-04T17:21:25.928Z,10.24
2022-11-04T17:24:32.510Z,10.28
2022-11-04T17:27:40.001Z,10.32
2022-11-04T17:30:47.950Z,10.32
2022-11-04T17:33:54.546Z,10.33
2022-11-04T17:37:01.923Z,10.36
2022-11-04T17:40:08.924Z,10.40
2022-11-04T17:43:16.128Z,10.40
2022-11-04T17:46:23.272Z,10.40
2022-11-04T17:49:30.255Z,10.42
2022-11-04T17:52:37.184Z,10.43
2022-11-04T17:55:44.534Z,10.42
2022-11-04T17:58:51.069Z,10.43
2022-11-04T18:01:58.411Z,10.44
2022-11-04T18:05:05.720Z,10.46
2022-11-04T18:08:12.329Z,10.46
2022-11-04T18:11:19.607Z,10.44
2022-11-04T18:14:26.419Z,10.46
2022-11-04T18:17:33.000Z,10.51
2022-11-04T18:20:40.112Z,10.52
2022-11-04T18:23:47.000Z,10.52
2022-11-04T18:26:53.954Z,10.52
2022-11-04T18:30:01.126Z,10.56
2022-11-04T18:33:08.338Z,10.55
2022-11-04T18:36:15.819Z,10.56
2022-11-04T18:39:22.815Z,10.56
2022-11-04T18:42:30.135Z,10.55
2022-11-04T18:45:37.107Z,10.53
2022-11-04T18:48:44.128Z,10.47
2022-11-04T18:51:51.430Z,10.46
2022-11-04T18:54:58.429Z,10.47
2022-11-04T18:58:05.489Z,10.47
2022-11-04T19:01:12.767Z,10.46
2022-11-04T19:04:19.681Z,10.46
2022-11-04T19:07:26.772Z,10.47
2022-11-04T19:10:35.997Z,10.46
2022-11-04T19:13:37.815Z,10.46
2022-11-04T19:16:45.124Z,10.46
2022-11-04T19:19:52.103Z,10.44
2022-11-04T19:22:59.215Z,10.43
2022-11-04T19:26:06.526Z,10.43
2022-11-04T19:29:13.144Z,10.43
2022-11-04T19:32:20.506Z,10.43
2022-11-04T19:35:27.760Z,10.42
2022-11-04T19:38:34.349Z,10.39
2022-11-04T19:41:41.779Z,10.37
2022-11-04T19:44:49.209Z,10.33
2022-11-04T19:47:55.830Z,10.28
2022-11-04T19:51:03.151Z,10.19
2022-11-04T19:54:10.103Z,10.10
2022-11-04T19:57:16.977Z,10.00
2022-11-04T20:00:24.492Z,9.86
2022-11-04T20:03:32.174Z,9.78
2022-11-04T20:06:39.604Z,9.68
2022-11-04T20:09:46.807Z,9.58
2022-11-04T20:12:53.624Z,9.43
2022-11-04T20:16:00.846Z,9.35
2022-11-04T20:19:07.535Z,9.27
2022-11-04T20:22:14.947Z,9.23
2022-11-04T20:25:22.382Z,9.20
2022-11-04T20:28:29.439Z,9.21
2022-11-04T20:31:36.406Z,9.25
2022-11-04T20:34:43.751Z,9.30
2022-11-04T20:37:50.762Z,9.34
2022-11-04T20:40:57.755Z,9.40
2022-11-04T20:44:04.732Z,9.43
2022-11-04T20:47:12.042Z,9.46
2022-11-04T20:50:19.064Z,9.53
2022-11-04T20:53:25.775Z,9.57
2022-11-04T20:56:33.183Z,9.60
2022-11-04T20:59:40.238Z,9.63
2022-11-04T21:02:47.156Z,9.60
2022-11-04T21:05:54.337Z,9.57
2022-11-04T21:09:00.967Z,9.50
2022-11-04T21:12:08.587Z,9.43
2022-11-04T21:15:15.980Z,9.35
2022-11-04T21:18:22.550Z,9.27
2022-11-04T21:21:29.668Z,9.16
2022-11-04T21:24:39.406Z,9.10
2022-11-04T21:27:46.089Z,8.99
2022-11-04T21:30:53.275Z,8.93
2022-11-04T21:34:00.280Z,8.84
2022-11-04T21:37:07.195Z,8.76
2022-11-04T21:40:13.823Z,8.72
2022-11-04T21:43:20.835Z,8.66
2022-11-04T21:46:28.386Z,8.60
2022-11-04T21:49:35.938Z,8.54
2022-11-04T21:52:43.427Z,8.48
2022-11-04T21:55:50.239Z,8.40
2022-11-04T21:58:57.226Z,8.35
2022-11-04T22:02:04.524Z,8.32
2022-11-04T22:05:11.517Z,8.28
2022-11-04T22:08:18.123Z,8.21
2022-11-04T22:11:25.479Z,8.14
2022-11-04T22:14:32.470Z,8.08
2022-11-04T22:17:39.091Z,8.03
2022-11-04T22:20:46.371Z,7.99
2022-11-04T22:23:52.953Z,7.92
2022-11-04T22:27:00.275Z,7.87
2022-11-04T22:30:07.527Z,7.81
2022-11-04T22:33:14.063Z,7.81
2022-11-04T22:36:21.664Z,7.78
2022-11-04T22:39:28.802Z,7.77
2022-11-04T22:42:35.336Z,7.74
2022-11-04T22:45:42.495Z,7.69
2022-11-04T22:48:49.762Z,7.66
2022-11-04T22:51:56.378Z,7.60
2022-11-04T22:55:03.740Z,7.60
2022-11-04T22:58:10.708Z,7.59
2022-11-04T23:01:17.700Z,7.66
2022-11-04T23:04:25.189Z,7.75
2022-11-04T23:07:32.201Z,7.85
2022-11-04T23:10:39.191Z,7.93
2022-11-04T23:13:46.181Z,8.02
2022-11-04T23:16:53.571Z,8.04
2022-11-04T23:20:00.416Z,8.08
2022-11-04T23:23:07.565Z,8.15
2022-11-04T23:26:14.974Z,8.21
2022-11-04T23:29:21.932Z,8.22
2022-11-04T23:32:28.484Z,8.25
2022-11-04T23:35:35.724Z,8.25
2022-11-04T23:38:46.383Z,8.26
2022-11-04T23:41:45.085Z,8.29
2022-11-04T23:44:52.315Z,8.30
2022-11-04T23:47:58.857Z,8.35
2022-11-04T23:51:06.018Z,8.36
2022-11-04T23:54:12.859Z,8.39
2022-11-04T23:57:19.780Z,8.42
